createdAt,value
2024-04-12T00:00:01.314Z,53
2024-04-12T00:01:01.524Z,54
2024-04-12T00:02:01.627Z,54
2024-04-12T00:03:00.974Z,54
2024-04-12T00:04:01.061Z,54
2024-04-12T00:05:01.054Z,54
2024-04-12T00:06:01.125Z,55
2024-04-12T00:07:01.186Z,53
2024-04-12T00:08:01.276Z,55
2024-04-12T00:09:01.366Z,53
2024-04-12T00:10:01.496Z,53
2024-04-12T00:11:01.568Z,53
2024-04-12T00:12:01.840Z,54
2024-04-12T00:13:01.073Z,55
2024-04-12T00:14:01.120Z,54
2024-04-12T00:15:01.265Z,54
2024-04-12T00:16:01.389Z,54
2024-04-12T00:17:01.518Z,54
2024-04-12T00:18:01.722Z,54
2024-04-12T00:19:00.895Z,54
2024-04-12T00:20:00.897Z,54
2024-04-12T00:21:01.020Z,54
2024-04-12T00:22:01.270Z,54
2024-04-12T00:23:01.304Z,54
2024-04-12T00:24:01.492Z,54
2024-04-12T00:25:02.258Z,54
2024-04-12T00:26:01.507Z,54
2024-04-12T00:27:01.659Z,54
2024-04-12T00:28:01.715Z,54
2024-04-12T00:29:01.756Z,54
2024-04-12T00:30:00.880Z,54
2024-04-12T00:31:00.943Z,54
2024-04-12T00:32:01.151Z,54
2024-04-12T00:33:01.403Z,54
2024-04-12T00:34:01.698Z,54
2024-04-12T00:35:00.823Z,54
2024-04-12T00:36:00.888Z,54
2024-04-12T00:37:00.982Z,54
2024-04-12T00:38:01.004Z,54
2024-04-12T00:39:01.167Z,54
2024-04-12T00:40:01.270Z,54
2024-04-12T00:41:01.423Z,54
2024-04-12T00:42:01.661Z,54
2024-04-12T00:43:01.855Z,54
2024-04-12T00:44:00.918Z,54
2024-04-12T00:45:01.020Z,54
2024-04-12T00:46:01.025Z,54
2024-04-12T00:47:01.197Z,54
2024-04-12T00:48:01.416Z,54
2024-04-12T00:49:01.640Z,54
2024-04-12T00:50:01.990Z,54
2024-04-12T00:51:01.148Z,54
2024-04-12T00:52:01.206Z,54
2024-04-12T00:53:01.263Z,54
2024-04-12T00:54:01.408Z,54
2024-04-12T00:55:01.495Z,53
2024-04-12T00:56:01.654Z,53
2024-04-12T00:57:01.100Z,53
2024-04-12T00:58:01.279Z,53
2024-04-12T00:59:01.414Z,53
2024-04-12T01:00:01.767Z,53
2024-04-12T01:01:01.092Z,53
2024-04-12T01:02:01.146Z,53
2024-04-12T01:03:01.290Z,54
2024-04-12T01:04:01.620Z,53
2024-04-12T01:05:01.784Z,53
2024-04-12T01:06:00.902Z,53
2024-04-12T01:07:00.939Z,53
2024-04-12T01:08:00.992Z,53
2024-04-12T01:09:01.139Z,53
2024-04-12T01:10:01.228Z,53
2024-04-12T01:11:01.382Z,53
2024-04-12T01:12:01.475Z,53
2024-04-12T01:13:01.525Z,53
2024-04-12T01:14:01.662Z,53
2024-04-12T01:15:01.889Z,53
2024-04-12T01:16:01.126Z,53
2024-04-12T01:17:01.261Z,53
2024-04-12T01:18:01.395Z,53
2024-04-12T01:19:01.542Z,53
2024-04-12T01:20:01.573Z,52
2024-04-12T01:21:01.791Z,52
2024-04-12T01:22:00.850Z,52
2024-04-12T01:23:00.966Z,52
2024-04-12T01:24:01.065Z,52
2024-04-12T01:25:01.124Z,52
2024-04-12T01:26:01.205Z,52
2024-04-12T01:27:01.466Z,51
2024-04-12T01:28:01.556Z,51
2024-04-12T01:29:01.578Z,51
2024-04-12T01:30:01.879Z,51
2024-04-12T01:31:01.090Z,51
2024-04-12T01:32:01.246Z,51
2024-04-12T01:33:01.485Z,51
2024-04-12T01:34:01.618Z,51
2024-04-12T01:35:01.677Z,52
2024-04-12T01:36:01.722Z,50
2024-04-12T01:37:00.805Z,52
2024-04-12T01:38:00.816Z,50
2024-04-12T01:39:00.953Z,50
2024-04-12T01:40:00.981Z,52
2024-04-12T01:41:01.276Z,50
2024-04-12T01:42:01.399Z,51
2024-04-12T01:43:01.634Z,51
2024-04-12T01:44:01.712Z,51
2024-04-12T01:45:01.835Z,51
2024-04-12T01:46:00.910Z,51
2024-04-12T01:47:00.979Z,51
2024-04-12T01:48:01.217Z,51
2024-04-12T01:49:01.646Z,51
2024-04-12T01:50:00.873Z,51
2024-04-12T01:51:00.915Z,51
2024-04-12T01:52:00.960Z,51
2024-04-12T01:53:00.974Z,51
2024-04-12T01:54:01.131Z,49
2024-04-12T01:55:01.206Z,49
2024-04-12T01:56:01.309Z,49
2024-04-12T01:57:01.516Z,49
2024-04-12T01:58:01.572Z,49
2024-04-12T01:59:01.652Z,49
2024-04-12T02:00:01.815Z,49
2024-04-12T02:01:00.938Z,49
2024-04-12T02:02:00.983Z,50
2024-04-12T02:03:01.533Z,48
2024-04-12T02:04:01.806Z,48
2024-04-12T02:05:00.890Z,48
2024-04-12T02:06:01.148Z,48
2024-04-12T02:07:01.350Z,50
2024-04-12T02:08:01.441Z,51
2024-04-12T02:09:01.522Z,51
2024-04-12T02:10:01.575Z,51
2024-04-12T02:11:00.911Z,51
2024-04-12T02:12:01.074Z,51
2024-04-12T02:13:01.284Z,51
2024-04-12T02:14:01.417Z,50
2024-04-12T02:15:01.552Z,50
2024-04-12T02:16:01.628Z,50
2024-04-12T02:17:01.688Z,50
2024-04-12T02:18:01.925Z,50
2024-04-12T02:19:01.231Z,50
2024-04-12T02:20:01.456Z,50
2024-04-12T02:21:01.613Z,50
2024-04-12T02:22:01.681Z,50
2024-04-12T02:23:02.693Z,50
2024-04-12T02:24:01.830Z,50
2024-04-12T02:25:00.872Z,50
2024-04-12T02:26:00.906Z,50
2024-04-12T02:27:00.998Z,50
2024-04-12T02:28:01.078Z,50
2024-04-12T02:29:01.150Z,50
2024-04-12T02:30:01.205Z,50
2024-04-12T02:31:01.253Z,50
2024-04-12T02:32:01.326Z,50
2024-04-12T02:33:01.419Z,50
2024-04-12T02:34:01.475Z,50
2024-04-12T02:35:01.469Z,50
2024-04-12T02:36:01.646Z,49
2024-04-12T02:37:01.723Z,49
2024-04-12T02:38:00.844Z,49
2024-04-12T02:39:00.923Z,50
2024-04-12T02:40:01.001Z,50
2024-04-12T02:41:01.066Z,49
2024-04-12T02:42:01.230Z,50
2024-04-12T02:43:01.332Z,49
2024-04-12T02:44:01.354Z,49
2024-04-12T02:45:01.491Z,49
2024-04-12T02:46:01.511Z,49
2024-04-12T02:47:01.569Z,49
2024-04-12T02:48:01.851Z,49
2024-04-12T02:49:01.021Z,49
2024-04-12T02:50:01.159Z,49
2024-04-12T02:51:01.281Z,49
2024-04-12T02:52:01.369Z,49
2024-04-12T02:53:01.392Z,49
2024-04-12T02:54:01.496Z,49
2024-04-12T02:55:01.645Z,48
2024-04-12T02:56:01.777Z,48
2024-04-12T02:57:00.949Z,48
2024-04-12T02:58:01.044Z,48
2024-04-12T02:59:11.111Z,48
2024-04-12T03:01:01.364Z,48
2024-04-12T03:02:01.484Z,48
2024-04-12T03:03:01.763Z,48
2024-04-12T03:04:01.440Z,48
2024-04-12T03:05:01.523Z,48
2024-04-12T03:06:01.679Z,48
2024-04-12T03:07:00.900Z,48
2024-04-12T03:08:00.946Z,48
2024-04-12T03:09:02.514Z,48
2024-04-12T03:10:01.230Z,48
2024-04-12T03:11:01.454Z,47
2024-04-12T03:12:01.676Z,47
2024-04-12T03:13:01.867Z,47
2024-04-12T03:14:00.916Z,47
2024-04-12T03:15:00.965Z,47
2024-04-12T03:16:01.115Z,47
2024-04-12T03:17:01.175Z,47
2024-04-12T03:18:01.420Z,48
2024-04-12T03:19:01.498Z,47
2024-04-12T03:20:01.577Z,48
2024-04-12T03:21:01.634Z,48
2024-04-12T03:22:01.797Z,47
2024-04-12T03:23:00.856Z,47
2024-04-12T03:24:00.978Z,47
2024-04-12T03:25:01.025Z,47
2024-04-12T03:26:01.054Z,47
2024-04-12T03:27:01.157Z,47
2024-04-12T03:28:01.284Z,47
2024-04-12T03:29:01.339Z,47
2024-04-12T03:30:01.513Z,47
2024-04-12T03:31:01.579Z,47
2024-04-12T03:32:01.748Z,47
2024-04-12T03:33:01.924Z,46
2024-04-12T03:34:00.994Z,46
2024-04-12T03:35:01.126Z,46
2024-04-12T03:36:01.183Z,46
2024-04-12T03:37:01.206Z,46
2024-04-12T03:38:01.215Z,46
2024-04-12T03:39:01.395Z,46
2024-04-12T03:40:01.604Z,45
2024-04-12T03:41:00.898Z,45
2024-04-12T03:42:01.119Z,45
2024-04-12T03:43:01.235Z,45
2024-04-12T03:44:01.286Z,46
2024-04-12T03:45:01.386Z,45
2024-04-12T03:46:01.418Z,45
2024-04-12T03:47:03.984Z,45
2024-04-12T03:48:01.878Z,45
2024-04-12T03:49:01.175Z,45
2024-04-12T03:50:01.283Z,45
2024-04-12T03:51:01.466Z,45
2024-04-12T03:52:01.577Z,45
2024-04-12T03:53:01.707Z,45
2024-04-12T03:54:01.866Z,45
2024-04-12T03:55:01.026Z,44
2024-04-12T03:56:01.098Z,44
2024-04-12T03:57:01.210Z,44
2024-04-12T03:58:01.280Z,44
2024-04-12T03:59:01.326Z,44
2024-04-12T04:00:01.400Z,44
2024-04-12T04:01:01.482Z,44
2024-04-12T04:02:01.571Z,44
2024-04-12T04:03:01.667Z,43
2024-04-12T04:04:01.782Z,43
2024-04-12T04:05:00.861Z,44
2024-04-12T04:06:01.050Z,43
2024-04-12T04:07:01.198Z,43
2024-04-12T04:08:01.245Z,43
2024-04-12T04:09:01.570Z,43
2024-04-12T04:10:01.603Z,43
2024-04-12T04:11:01.729Z,43
2024-04-12T04:12:01.313Z,43
2024-04-12T04:13:01.492Z,43
2024-04-12T04:14:01.602Z,43
2024-04-12T04:15:01.735Z,42
2024-04-12T04:16:00.834Z,42
2024-04-12T04:17:00.892Z,42
2024-04-12T04:18:01.086Z,42
2024-04-12T04:19:01.560Z,42
2024-04-12T04:20:01.677Z,42
2024-04-12T04:21:01.799Z,42
2024-04-12T04:22:00.891Z,42
2024-04-12T04:23:01.008Z,42
2024-04-12T04:24:00.828Z,42
2024-04-12T04:25:00.925Z,41
2024-04-12T04:26:00.925Z,42
2024-04-12T04:27:00.986Z,41
2024-04-12T04:28:01.036Z,41
2024-04-12T04:29:01.078Z,41
2024-04-12T04:30:01.195Z,41
2024-04-12T04:31:01.307Z,41
2024-04-12T04:32:01.361Z,41
2024-04-12T04:33:01.497Z,41
2024-04-12T04:34:01.573Z,41
2024-04-12T04:35:01.624Z,41
2024-04-12T04:36:01.694Z,41
2024-04-12T04:37:08.053Z,41
2024-04-12T04:39:01.502Z,41
2024-04-12T04:40:01.767Z,41
2024-04-12T04:41:01.759Z,41
2024-04-12T04:42:00.964Z,40
2024-04-12T04:43:01.059Z,41
2024-04-12T04:44:01.073Z,41
2024-04-12T04:45:01.174Z,41
2024-04-12T04:46:01.291Z,41
2024-04-12T04:47:01.579Z,41
2024-04-12T04:48:01.759Z,41
2024-04-12T04:49:01.108Z,41
2024-04-12T04:50:01.175Z,41
2024-04-12T04:51:01.382Z,41
2024-04-12T04:52:01.480Z,40
2024-04-12T04:53:01.294Z,40
2024-04-12T04:54:01.363Z,40
2024-04-12T04:55:01.376Z,40
2024-04-12T04:56:01.398Z,40
2024-04-12T04:57:01.574Z,40
2024-04-12T04:58:01.728Z,40
2024-04-12T04:59:01.759Z,40
2024-04-12T05:00:00.872Z,40
2024-04-12T05:01:00.945Z,40
2024-04-12T05:02:01.047Z,40
2024-04-12T05:03:01.174Z,40
2024-04-12T05:04:01.419Z,40
2024-04-12T05:05:01.510Z,40
2024-04-12T05:06:01.599Z,39
2024-04-12T05:07:01.675Z,39
2024-04-12T05:08:01.715Z,40
2024-04-12T05:09:01.884Z,40
2024-04-12T05:10:01.004Z,40
2024-04-12T05:11:01.016Z,39
2024-04-12T05:12:02.127Z,39
2024-04-12T05:13:01.434Z,39
2024-04-12T05:14:01.565Z,39
2024-04-12T05:15:01.680Z,39
2024-04-12T05:16:01.752Z,39
2024-04-12T05:17:01.846Z,40
2024-04-12T05:18:01.071Z,40
2024-04-12T05:19:01.334Z,39
2024-04-12T05:20:01.771Z,38
2024-04-12T05:21:00.976Z,38
2024-04-12T05:22:01.011Z,38
2024-04-12T05:23:01.051Z,38
2024-04-12T05:24:01.271Z,38
2024-04-12T05:25:01.409Z,38
2024-04-12T05:26:01.446Z,37
2024-04-12T05:27:01.635Z,37
2024-04-12T05:28:01.536Z,38
2024-04-12T05:29:01.675Z,38
2024-04-12T05:30:01.860Z,38
2024-04-12T05:31:00.974Z,38
2024-04-12T05:32:01.080Z,38
2024-04-12T05:33:01.306Z,37
2024-04-12T05:34:01.555Z,37
2024-04-12T05:35:01.606Z,36
2024-04-12T05:36:01.740Z,37
2024-04-12T05:37:00.832Z,37
2024-04-12T05:38:00.818Z,37
2024-04-12T05:39:00.927Z,37
2024-04-12T05:40:01.031Z,37
2024-04-12T05:41:01.136Z,37
2024-04-12T05:42:01.239Z,37
2024-04-12T05:43:01.322Z,37
2024-04-12T05:44:01.365Z,37
2024-04-12T05:45:01.583Z,37
2024-04-12T05:46:01.761Z,37
2024-04-12T05:47:00.821Z,36
2024-04-12T05:48:00.931Z,36
2024-04-12T05:49:00.961Z,35
2024-04-12T05:50:01.000Z,35
2024-04-12T05:51:01.139Z,35
2024-04-12T05:52:01.312Z,36
2024-04-12T05:53:01.412Z,36
2024-04-12T05:54:01.561Z,36
2024-04-12T05:55:01.611Z,36
2024-04-12T05:56:01.641Z,36
2024-04-12T05:57:01.837Z,36
2024-04-12T05:58:00.838Z,36
2024-04-12T05:59:01.060Z,36
2024-04-12T06:00:01.379Z,36
2024-04-12T06:01:01.565Z,35
2024-04-12T06:02:01.775Z,35
2024-04-12T06:03:01.156Z,35
2024-04-12T06:04:01.701Z,33
2024-04-12T06:05:01.745Z,35
2024-04-12T06:06:01.834Z,35
2024-04-12T06:07:01.095Z,35
2024-04-12T06:08:01.289Z,35
2024-04-12T06:09:01.357Z,36
2024-04-12T06:10:01.387Z,36
2024-04-12T06:11:01.447Z,35
2024-04-12T06:12:01.609Z,36
2024-04-12T06:13:01.675Z,36
2024-04-12T06:14:01.697Z,36
2024-04-12T06:15:01.841Z,36
2024-04-12T06:16:00.909Z,36
2024-04-12T06:17:00.997Z,36
2024-04-12T06:18:01.242Z,36
2024-04-12T06:19:01.505Z,35
2024-04-12T06:20:01.584Z,35
2024-04-12T06:21:01.655Z,35
2024-04-12T06:22:00.889Z,35
2024-04-12T06:23:01.007Z,35
2024-04-12T06:24:01.297Z,35
2024-04-12T06:25:01.551Z,34
2024-04-12T06:26:01.598Z,35
2024-04-12T06:27:01.727Z,35
2024-04-12T06:28:01.781Z,35
2024-04-12T06:29:01.780Z,34
2024-04-12T06:30:01.047Z,35
2024-04-12T06:31:01.504Z,35
2024-04-12T06:32:01.577Z,35
2024-04-12T06:33:01.823Z,35
2024-04-12T06:34:01.013Z,35
2024-04-12T06:35:01.153Z,35
2024-04-12T06:36:01.197Z,35
2024-04-12T06:37:01.316Z,35
2024-04-12T06:38:01.333Z,35
2024-04-12T06:39:01.491Z,35
2024-04-12T06:40:01.640Z,35
2024-04-12T06:41:01.776Z,35
2024-04-12T06:42:00.899Z,35
2024-04-12T06:43:01.908Z,34
2024-04-12T06:44:00.916Z,34
2024-04-12T06:45:01.113Z,35
2024-04-12T06:46:01.163Z,35
2024-04-12T06:47:01.269Z,35
2024-04-12T06:48:01.368Z,35
2024-04-12T06:49:01.752Z,34
2024-04-12T06:50:00.842Z,34
2024-04-12T06:51:01.124Z,34
2024-04-12T06:52:01.422Z,34
2024-04-12T06:53:01.475Z,34
2024-04-12T06:54:01.647Z,34
2024-04-12T06:55:01.670Z,32
2024-04-12T06:56:01.690Z,32
2024-04-12T06:57:01.771Z,32
2024-04-12T06:58:00.895Z,34
2024-04-12T06:59:00.968Z,32
2024-04-12T07:00:01.258Z,34
2024-04-12T07:01:01.376Z,34
2024-04-12T07:02:01.421Z,32
2024-04-12T07:03:01.575Z,32
2024-04-12T07:04:01.844Z,32
2024-04-12T07:05:01.173Z,34
2024-04-12T07:06:01.575Z,32
2024-04-12T07:07:03.860Z,32
2024-04-12T07:08:01.381Z,32
2024-04-12T07:09:01.484Z,32
2024-04-12T07:10:01.592Z,32
2024-04-12T07:11:01.684Z,32
2024-04-12T07:12:01.783Z,31
2024-04-12T07:13:00.998Z,31
2024-04-12T07:14:01.225Z,31
2024-04-12T07:15:01.331Z,31
2024-04-12T07:16:01.425Z,31
2024-04-12T07:17:01.471Z,31
2024-04-12T07:18:01.766Z,31
2024-04-12T07:19:00.907Z,30
2024-04-12T07:20:01.355Z,30
2024-04-12T07:21:01.559Z,31
2024-04-12T07:22:01.599Z,30
2024-04-12T07:23:01.622Z,30
2024-04-12T07:24:01.686Z,30
2024-04-12T07:25:01.691Z,30
2024-04-12T07:26:02.364Z,30
2024-04-12T07:27:01.381Z,30
2024-04-12T07:28:01.427Z,31
2024-04-12T07:29:02.163Z,31
2024-04-12T07:30:01.427Z,31
2024-04-12T07:31:01.541Z,31
2024-04-12T07:32:01.652Z,31
2024-04-12T07:33:01.854Z,31
2024-04-12T07:34:01.467Z,31
2024-04-12T07:35:01.591Z,31
2024-04-12T07:36:01.675Z,31
2024-04-12T07:37:00.994Z,31
2024-04-12T07:38:04.081Z,31
2024-04-12T07:39:01.212Z,31
2024-04-12T07:40:01.319Z,31
2024-04-12T07:41:01.383Z,31
2024-04-12T07:42:01.496Z,32
2024-04-12T07:43:01.602Z,32
2024-04-12T07:44:01.720Z,32
2024-04-12T07:45:01.961Z,32
2024-04-12T07:46:01.079Z,32
2024-04-12T07:47:01.226Z,32
2024-04-12T07:48:01.443Z,32
2024-04-12T07:49:01.615Z,32
2024-04-12T07:50:01.767Z,34
2024-04-12T07:51:00.999Z,34
2024-04-12T07:52:01.147Z,33
2024-04-12T07:53:01.231Z,33
2024-04-12T07:54:01.301Z,33
2024-04-12T07:55:01.367Z,33
2024-04-12T07:56:01.415Z,35
2024-04-12T07:57:01.489Z,35
2024-04-12T07:58:01.559Z,35
2024-04-12T07:59:01.607Z,35
2024-04-12T08:00:01.728Z,35
2024-04-12T08:01:01.818Z,35
2024-04-12T08:02:00.896Z,35
2024-04-12T08:03:01.011Z,34
2024-04-12T08:04:01.186Z,34
2024-04-12T08:05:01.272Z,35
2024-04-12T08:06:01.554Z,35
2024-04-12T08:07:01.797Z,35
2024-04-12T08:08:00.861Z,35
2024-04-12T08:09:00.930Z,35
2024-04-12T08:10:00.927Z,35
2024-04-12T08:11:00.958Z,35
2024-04-12T08:12:01.077Z,35
2024-04-12T08:13:01.140Z,35
2024-04-12T08:14:01.245Z,35
2024-04-12T08:15:01.293Z,35
2024-04-12T08:16:01.610Z,35
2024-04-12T08:17:01.645Z,35
2024-04-12T08:18:01.810Z,35
2024-04-12T08:19:00.936Z,35
2024-04-12T08:20:01.006Z,35
2024-04-12T08:21:01.110Z,35
2024-04-12T08:22:01.164Z,35
2024-04-12T08:23:01.273Z,35
2024-04-12T08:24:01.387Z,35
2024-04-12T08:25:01.449Z,35
2024-04-12T08:26:01.477Z,35
2024-04-12T08:27:01.565Z,35
2024-04-12T08:28:01.618Z,35
2024-04-12T08:29:01.672Z,34
2024-04-12T08:30:01.836Z,34
2024-04-12T08:31:00.928Z,34
2024-04-12T08:32:01.786Z,34
2024-04-12T08:33:01.210Z,34
2024-04-12T08:34:01.480Z,34
2024-04-12T08:35:01.564Z,34
2024-04-12T08:36:01.611Z,34
2024-04-12T08:37:01.656Z,34
2024-04-12T08:38:01.718Z,34
2024-04-12T08:39:01.841Z,34
2024-04-12T08:40:00.921Z,34
2024-04-12T08:41:01.022Z,34
2024-04-12T08:42:01.193Z,34
2024-04-12T08:43:01.317Z,34
2024-04-12T08:44:01.355Z,34
2024-04-12T08:45:01.549Z,34
2024-04-12T08:46:01.703Z,34
2024-04-12T08:47:01.828Z,34
2024-04-12T08:48:01.026Z,34
2024-04-12T08:49:01.183Z,34
2024-04-12T08:50:01.474Z,34
2024-04-12T08:51:01.613Z,34
2024-04-12T08:52:01.636Z,34
2024-04-12T08:53:01.763Z,34
2024-04-12T08:54:01.982Z,34
2024-04-12T08:55:01.106Z,34
2024-04-12T08:56:01.249Z,34
2024-04-12T08:57:01.328Z,34
2024-04-12T08:58:01.362Z,34
2024-04-12T08:59:01.386Z,34
2024-04-12T09:00:01.540Z,34
2024-04-12T09:01:01.658Z,34
2024-04-12T09:02:01.712Z,34
2024-04-12T09:03:01.759Z,33
2024-04-12T09:04:00.896Z,33
2024-04-12T09:05:01.028Z,33
2024-04-12T09:06:01.230Z,34
2024-04-12T09:07:01.279Z,34
2024-04-12T09:08:03.759Z,34
2024-04-12T09:09:01.035Z,34
2024-04-12T09:10:01.118Z,34
2024-04-12T09:11:04.560Z,34
2024-04-12T09:12:01.662Z,34
2024-04-12T09:13:01.708Z,34
2024-04-12T09:14:01.728Z,35
2024-04-12T09:15:02.026Z,35
2024-04-12T09:16:01.152Z,35
2024-04-12T09:17:01.314Z,35
2024-04-12T09:18:01.678Z,35
2024-04-12T09:19:00.970Z,35
2024-04-12T09:20:01.071Z,35
2024-04-12T09:21:03.485Z,35
2024-04-12T09:22:01.200Z,35
2024-04-12T09:23:01.298Z,35
2024-04-12T09:24:01.375Z,35
2024-04-12T09:25:01.434Z,35
2024-04-12T09:26:03.544Z,35
2024-04-12T09:27:00.982Z,35
2024-04-12T09:28:01.015Z,35
2024-04-12T09:29:01.046Z,36
2024-04-12T09:30:01.195Z,36
2024-04-12T09:31:01.346Z,36
2024-04-12T09:32:01.369Z,36
2024-04-12T09:33:01.529Z,36
2024-04-12T09:34:01.697Z,36
2024-04-12T09:35:00.815Z,36
2024-04-12T09:36:00.868Z,36
2024-04-12T09:37:00.911Z,37
2024-04-12T09:38:00.969Z,37
2024-04-12T09:39:01.053Z,37
2024-04-12T09:40:01.191Z,37
2024-04-12T09:41:01.253Z,38
2024-04-12T09:42:01.323Z,38
2024-04-12T09:43:01.398Z,38
2024-04-12T09:44:01.539Z,38
2024-04-12T09:45:01.867Z,38
2024-04-12T09:46:00.985Z,38
2024-04-12T09:47:01.116Z,39
2024-04-12T09:48:01.321Z,39
2024-04-12T09:49:01.682Z,39
2024-04-12T09:50:01.703Z,39
2024-04-12T09:51:02.017Z,40
2024-04-12T09:52:01.196Z,40
2024-04-12T09:53:01.245Z,40
2024-04-12T09:54:01.532Z,40
2024-04-12T09:55:01.622Z,41
2024-04-12T09:56:01.662Z,41
2024-04-12T09:57:01.806Z,41
2024-04-12T09:58:00.875Z,41
2024-04-12T09:59:00.902Z,41
2024-04-12T10:00:01.242Z,41
2024-04-12T10:01:01.388Z,41
2024-04-12T10:02:01.396Z,42
2024-04-12T10:03:01.514Z,42
2024-04-12T10:04:01.768Z,42
2024-04-12T10:05:00.912Z,42
2024-04-12T10:06:01.017Z,42
2024-04-12T10:07:01.077Z,43
2024-04-12T10:08:01.208Z,43
2024-04-12T10:09:01.285Z,43
2024-04-12T10:10:01.387Z,43
2024-04-12T10:11:01.486Z,43
2024-04-12T10:12:01.614Z,43
2024-04-12T10:13:01.708Z,43
2024-04-12T10:14:01.851Z,43
2024-04-12T10:15:00.995Z,43
2024-04-12T10:16:01.151Z,44
2024-04-12T10:17:01.256Z,44
2024-04-12T10:18:01.473Z,44
2024-04-12T10:19:01.871Z,44
2024-04-12T10:20:01.025Z,44
2024-04-12T10:21:01.116Z,44
2024-04-12T10:22:01.207Z,44
2024-04-12T10:23:01.251Z,44
2024-04-12T10:24:01.345Z,44
2024-04-12T10:25:01.400Z,44
2024-04-12T10:26:01.398Z,45
2024-04-12T10:27:01.463Z,45
2024-04-12T10:28:01.568Z,45
2024-04-12T10:29:01.630Z,45
2024-04-12T10:30:01.708Z,45
2024-04-12T10:31:01.812Z,45
2024-04-12T10:32:00.865Z,45
2024-04-12T10:33:01.109Z,44
2024-04-12T10:34:01.355Z,46
2024-04-12T10:35:01.493Z,46
2024-04-12T10:36:01.805Z,45
2024-04-12T10:37:00.931Z,45
2024-04-12T10:38:00.974Z,45
2024-04-12T10:39:01.031Z,45
2024-04-12T10:40:01.113Z,45
2024-04-12T10:41:01.150Z,46
2024-04-12T10:42:01.224Z,46
2024-04-12T10:43:01.328Z,46
2024-04-12T10:44:01.364Z,46
2024-04-12T10:45:01.542Z,46
2024-04-12T10:46:01.737Z,46
2024-04-12T10:47:01.784Z,46
2024-04-12T10:48:00.975Z,46
2024-04-12T10:49:01.093Z,46
2024-04-12T10:50:01.116Z,46
2024-04-12T10:51:01.194Z,47
2024-04-12T10:52:01.222Z,47
2024-04-12T10:53:01.273Z,47
2024-04-12T10:54:01.328Z,47
2024-04-12T10:55:01.392Z,47
2024-04-12T10:56:01.524Z,47
2024-04-12T10:57:02.862Z,47
2024-04-12T10:58:01.048Z,47
2024-04-12T10:59:01.092Z,47
2024-04-12T11:00:01.331Z,47
2024-04-12T11:01:01.615Z,47
2024-04-12T11:02:02.067Z,47
2024-04-12T11:03:07.312Z,47
2024-04-12T11:04:01.484Z,48
2024-04-12T11:05:01.656Z,48
2024-04-12T11:06:01.818Z,48
2024-04-12T11:07:00.916Z,48
2024-04-12T11:08:05.426Z,48
2024-04-12T11:09:01.178Z,48
2024-04-12T11:10:01.453Z,48
2024-04-12T11:11:01.529Z,48
2024-04-12T11:12:01.650Z,49
2024-04-12T11:13:01.689Z,48
2024-04-12T11:14:00.960Z,49
2024-04-12T11:15:01.157Z,49
2024-04-12T11:16:01.235Z,49
2024-04-12T11:17:01.232Z,49
2024-04-12T11:18:01.628Z,49
2024-04-12T11:19:02.066Z,49
2024-04-12T11:20:01.222Z,49
2024-04-12T11:21:01.315Z,49
2024-04-12T11:22:01.378Z,50
2024-04-12T11:23:01.492Z,50
2024-04-12T11:24:01.623Z,50
2024-04-12T11:25:01.706Z,50
2024-04-12T11:26:01.778Z,50
2024-04-12T11:27:03.861Z,50
2024-04-12T11:28:01.180Z,50
2024-04-12T11:29:01.211Z,51
2024-04-12T11:30:01.401Z,51
2024-04-12T11:31:01.548Z,51
2024-04-12T11:32:01.656Z,51
2024-04-12T11:33:01.823Z,51
2024-04-12T11:34:08.779Z,51
2024-04-12T11:36:01.165Z,51
2024-04-12T11:37:01.296Z,51
2024-04-12T11:38:01.300Z,52
2024-04-12T11:39:01.323Z,52
2024-04-12T11:40:01.391Z,52
2024-04-12T11:41:01.475Z,52
2024-04-12T11:42:01.598Z,52
2024-04-12T11:43:03.747Z,52
2024-04-12T11:44:01.445Z,52
2024-04-12T11:45:01.527Z,52
2024-04-12T11:46:01.616Z,53
2024-04-12T11:47:01.761Z,53
2024-04-12T11:48:01.116Z,53
2024-04-12T11:49:03.125Z,53
2024-04-12T11:50:01.521Z,53
2024-04-12T11:51:01.710Z,53
2024-04-12T11:52:01.790Z,53
2024-04-12T11:53:00.849Z,54
2024-04-12T11:54:00.934Z,54
2024-04-12T11:55:01.273Z,54
2024-04-12T11:56:01.490Z,54
2024-04-12T11:57:01.665Z,54
2024-04-12T11:58:01.715Z,54
2024-04-12T11:59:00.856Z,54
2024-04-12T12:00:01.866Z,54
2024-04-12T12:01:01.464Z,54
2024-04-12T12:02:01.593Z,54
2024-04-12T12:03:01.705Z,54
2024-04-12T12:04:01.801Z,55
2024-04-12T12:05:00.944Z,55
2024-04-12T12:06:01.072Z,55
2024-04-12T12:07:01.155Z,55
2024-04-12T12:08:01.277Z,55
2024-04-12T12:09:01.383Z,55
2024-04-12T12:10:01.536Z,55
2024-04-12T12:11:01.734Z,56
2024-04-12T12:12:01.954Z,56
2024-04-12T12:13:01.296Z,56
2024-04-12T12:14:01.353Z,56
2024-04-12T12:15:01.585Z,56
2024-04-12T12:16:01.749Z,56
2024-04-12T12:17:01.926Z,56
2024-04-12T12:18:01.211Z,56
2024-04-12T12:19:01.364Z,56
2024-04-12T12:20:01.407Z,56
2024-04-12T12:21:01.625Z,56
2024-04-12T12:22:01.678Z,56
2024-04-12T12:23:01.737Z,56
2024-04-12T12:24:01.858Z,56
2024-04-12T12:25:04.895Z,56
2024-04-12T12:26:01.159Z,56
2024-04-12T12:27:01.189Z,56
2024-04-12T12:28:01.295Z,56
2024-04-12T12:29:01.343Z,56
2024-04-12T12:30:01.446Z,56
2024-04-12T12:31:01.502Z,56
2024-04-12T12:32:01.602Z,56
2024-04-12T12:33:02.018Z,56
2024-04-12T12:34:01.205Z,56
2024-04-12T12:35:01.418Z,56
2024-04-12T12:36:01.502Z,57
2024-04-12T12:37:01.546Z,57
2024-04-12T12:38:04.964Z,57
2024-04-12T12:39:01.217Z,57
2024-04-12T12:40:01.734Z,57
2024-04-12T12:41:00.979Z,57
2024-04-12T12:42:01.101Z,57
2024-04-12T12:43:01.210Z,57
2024-04-12T12:44:01.280Z,57
2024-04-12T12:45:01.554Z,57
2024-04-12T12:46:01.692Z,57
2024-04-12T12:47:01.700Z,57
2024-04-12T12:48:01.894Z,57
2024-04-12T12:49:01.217Z,57
2024-04-12T12:50:01.374Z,57
2024-04-12T12:51:01.515Z,57
2024-04-12T12:52:01.623Z,57
2024-04-12T12:53:01.657Z,57
2024-04-12T12:54:01.817Z,57
2024-04-12T12:55:00.890Z,57
2024-04-12T12:56:00.946Z,57
2024-04-12T12:57:00.981Z,57
2024-04-12T12:58:01.047Z,57
2024-04-12T12:59:01.148Z,57
2024-04-12T13:00:01.348Z,57
2024-04-12T13:01:01.779Z,57
2024-04-12T13:02:00.955Z,57
2024-04-12T13:03:01.362Z,57
2024-04-12T13:04:01.590Z,57
2024-04-12T13:05:01.626Z,57
2024-04-12T13:06:01.695Z,57
2024-04-12T13:07:01.792Z,57
2024-04-12T13:08:00.894Z,57
2024-04-12T13:09:00.999Z,57
2024-04-12T13:10:01.183Z,58
2024-04-12T13:11:04.271Z,58
2024-04-12T13:12:01.556Z,57
2024-04-12T13:13:01.757Z,58
2024-04-12T13:14:01.787Z,58
2024-04-12T13:15:00.985Z,58
2024-04-12T13:16:01.137Z,58
2024-04-12T13:17:01.381Z,57
2024-04-12T13:18:01.628Z,58
2024-04-12T13:19:02.052Z,58
2024-04-12T13:20:01.388Z,58
2024-04-12T13:21:01.448Z,58
2024-04-12T13:22:01.491Z,58
2024-04-12T13:23:01.572Z,58
2024-04-12T13:24:01.639Z,58
2024-04-12T13:25:01.714Z,58
2024-04-12T13:26:01.791Z,58
2024-04-12T13:27:01.069Z,58
2024-04-12T13:28:05.526Z,58
2024-04-12T13:30:01.861Z,58
2024-04-12T13:31:01.122Z,58
2024-04-12T13:32:01.211Z,58
2024-04-12T13:33:01.538Z,58
2024-04-12T13:34:01.949Z,59
2024-04-12T13:35:01.185Z,59
2024-04-12T13:36:01.514Z,59
2024-04-12T13:37:01.719Z,59
2024-04-12T13:38:01.724Z,59
2024-04-12T13:39:01.830Z,59
2024-04-12T13:40:00.934Z,59
2024-04-12T13:41:01.056Z,59
2024-04-12T13:42:01.201Z,59
2024-04-12T13:43:01.271Z,59
2024-04-12T13:44:01.303Z,59
2024-04-12T13:45:01.415Z,59
2024-04-12T13:46:01.540Z,59
2024-04-12T13:47:01.595Z,59
2024-04-12T13:48:01.771Z,59
2024-04-12T13:49:01.846Z,59
2024-04-12T13:50:00.947Z,59
2024-04-12T13:51:01.123Z,60
2024-04-12T13:52:01.206Z,58
2024-04-12T13:53:01.315Z,59
2024-04-12T13:54:01.520Z,58
2024-04-12T13:55:01.618Z,60
2024-04-12T13:56:01.715Z,58
2024-04-12T13:57:01.917Z,58
2024-04-12T13:58:01.011Z,59
2024-04-12T13:59:01.103Z,60
2024-04-12T14:00:01.345Z,60
2024-04-12T14:01:01.539Z,60
2024-04-12T14:02:01.676Z,60
2024-04-12T14:03:01.835Z,60
2024-04-12T14:04:00.960Z,58
2024-04-12T14:05:01.059Z,59
2024-04-12T14:06:01.165Z,59
2024-04-12T14:07:01.239Z,60
2024-04-12T14:08:01.293Z,60
2024-04-12T14:09:01.398Z,60
2024-04-12T14:10:01.503Z,60
2024-04-12T14:11:01.698Z,60
2024-04-12T14:12:01.844Z,60
2024-04-12T14:13:00.988Z,60
2024-04-12T14:14:01.023Z,60
2024-04-12T14:15:01.243Z,60
2024-04-12T14:16:01.469Z,60
2024-04-12T14:17:01.520Z,60
2024-04-12T14:18:01.686Z,60
2024-04-12T14:19:01.878Z,60